createdAt,value
2023-01-29T00:00:45.955Z,99169.88
2023-01-29T00:03:54.491Z,99169.91
2023-01-29T00:07:00.147Z,99158.69
2023-01-29T00:10:10.790Z,99166.47
2023-01-29T00:13:16.156Z,99165.63
2023-01-29T00:16:23.402Z,99158.72
2023-01-29T00:19:28.886Z,99161.28
2023-01-29T00:22:35.395Z,99157.78
2023-01-29T00:25:43.683Z,99174.94
2023-01-29T00:28:50.080Z,99162.84
2023-01-29T00:31:55.590Z,99167.19
2023-01-29T00:35:02.158Z,99155.09
2023-01-29T00:38:07.541Z,99166.22
2023-01-29T00:41:35.116Z,99166.25
2023-01-29T00:44:56.629Z,99188.69
2023-01-29T00:48:03.133Z,99173.19
2023-01-29T00:51:09.171Z,99178.38
2023-01-29T00:54:15.367Z,99174.94
2023-01-29T00:57:23.568Z,99167.28
2023-01-29T01:00:30.110Z,99173.34
2023-01-29T01:03:35.363Z,99192.47
2023-01-29T01:06:42.171Z,99197.66
2023-01-29T01:10:03.286Z,99206.28
2023-01-29T01:13:12.741Z,99201.13
2023-01-29T01:16:21.662Z,99195.06
2023-01-29T01:19:28.233Z,99194.28
2023-01-29T01:22:33.737Z,99182.28
2023-01-29T01:25:39.992Z,99178.84
2023-01-29T01:28:48.513Z,99174.56
2023-01-29T01:31:57.813Z,99172.84
2023-01-29T01:35:03.303Z,99180.56
2023-01-29T01:38:09.713Z,99172.81
2023-01-29T01:41:17.245Z,99170.25
2023-01-29T01:45:01.425Z,99184.88
2023-01-29T01:48:17.318Z,99170.25
2023-01-29T01:51:29.464Z,99115.31
2023-01-29T01:54:36.419Z,99160.81
2023-01-29T01:57:49.098Z,99167.69
2023-01-29T02:00:58.970Z,99158.25
2023-01-29T02:04:28.128Z,99152.25
2023-01-29T02:07:49.477Z,99135.09
2023-01-29T02:10:57.074Z,99146.25
2023-01-29T02:14:03.779Z,99145.41
2023-01-29T02:17:17.997Z,99158.31
2023-01-29T02:20:32.065Z,99135.09
2023-01-29T02:24:27.429Z,99132.50
2023-01-29T02:28:14.564Z,99141.06
2023-01-29T02:31:35.976Z,99127.34
2023-01-29T02:35:19.293Z,99121.31
2023-01-29T02:38:39.495Z,99124.75
2023-01-29T02:41:59.160Z,99130.78
2023-01-29T02:45:17.092Z,99122.19
2023-01-29T02:48:38.683Z,99141.09
2023-01-29T02:51:54.852Z,99150.56
2023-01-29T02:55:13.801Z,99151.41
2023-01-29T02:58:34.099Z,99152.28
2023-01-29T03:01:51.310Z,99159.13
2023-01-29T03:05:07.848Z,99153.13
2023-01-29T03:08:23.910Z,99154.00
2023-01-29T03:11:40.022Z,99154.88
2023-01-29T03:14:59.080Z,99154.84
2023-01-29T03:18:14.010Z,99156.56
2023-01-29T03:21:50.132Z,99163.44
2023-01-29T03:25:20.213Z,99182.34
2023-01-29T03:28:47.036Z,99180.63
2023-01-29T03:32:07.445Z,99184.06
2023-01-29T03:35:36.967Z,99178.03
2023-01-29T03:38:47.880Z,99170.31
2023-01-29T03:42:15.517Z,99156.59
2023-01-29T03:45:37.834Z,99166.03
2023-01-29T03:48:58.506Z,99165.16
2023-01-29T03:52:18.072Z,99165.16
2023-01-29T03:55:41.556Z,99154.81
2023-01-29T03:59:00.555Z,99147.94
2023-01-29T04:02:38.912Z,99150.50
2023-01-29T04:06:09.873Z,99146.22
2023-01-29T04:09:30.811Z,99149.66
2023-01-29T04:12:48.698Z,99146.28
2023-01-29T04:16:03.518Z,99134.22
2023-01-29T04:19:59.267Z,99141.91
2023-01-29T04:23:09.807Z,99136.75
2023-01-29T04:27:07.165Z,99129.00
2023-01-29T04:30:36.485Z,99123.78
2023-01-29T04:34:01.884Z,99110.03
2023-01-29T04:37:25.179Z,99099.72
2023-01-29T04:40:50.584Z,99098.00
2023-01-29T04:44:08.183Z,99093.69
2023-01-29T04:47:33.455Z,99086.78
2023-01-29T04:50:50.027Z,99068.72
2023-01-29T04:54:11.173Z,99079.03
2023-01-29T04:57:27.972Z,99074.72
2023-01-29T05:00:41.577Z,99079.00
2023-01-29T05:03:57.517Z,99081.56
2023-01-29T05:07:10.220Z,99082.41
2023-01-29T05:10:21.315Z,99084.09
2023-01-29T05:13:31.924Z,99084.09
2023-01-29T05:16:46.950Z,99090.09
2023-01-29T05:19:55.929Z,99097.81
2023-01-29T05:23:03.265Z,99087.47
2023-01-29T05:26:09.495Z,99101.28
2023-01-29T05:29:12.968Z,99100.41
2023-01-29T05:32:19.578Z,99099.56
2023-01-29T05:35:28.803Z,99106.47
2023-01-29T05:38:34.163Z,99101.28
2023-01-29T05:41:40.450Z,99085.84
2023-01-29T05:44:45.952Z,99086.69
2023-01-29T05:47:52.406Z,99089.25
2023-01-29T05:51:04.298Z,99093.59
2023-01-29T05:54:10.688Z,99094.56
2023-01-29T05:57:17.502Z,99095.44
2023-01-29T06:00:24.576Z,99091.94
2023-01-29T06:03:30.107Z,99096.22
2023-01-29T06:06:39.120Z,99101.31
2023-01-29T06:09:44.473Z,99103.03
2023-01-29T06:12:50.770Z,99112.47
2023-01-29T06:15:56.341Z,99099.56
2023-01-29T06:19:02.609Z,99101.25
2023-01-29T06:22:10.881Z,99106.38
2023-01-29T06:25:17.165Z,99108.94
2023-01-29T06:28:22.650Z,99113.19
2023-01-29T06:31:38.223Z,99115.75
2023-01-29T06:34:44.568Z,99114.91
2023-01-29T06:37:53.591Z,99108.94
2023-01-29T06:40:59.666Z,99117.56
2023-01-29T06:44:06.146Z,99113.25
2023-01-29T06:47:11.554Z,99102.06
2023-01-29T06:50:18.549Z,99102.97
2023-01-29T06:53:26.851Z,99110.69
2023-01-29T06:56:33.271Z,99105.56
2023-01-29T06:59:38.654Z,99110.81
2023-01-29T07:02:44.874Z,99108.28
2023-01-29T07:05:55.150Z,99116.88
2023-01-29T07:09:04.253Z,99103.97
2023-01-29T07:12:11.667Z,99120.34
2023-01-29T07:15:20.537Z,99114.38
2023-01-29T07:18:25.990Z,99123.03
2023-01-29T07:21:32.362Z,99111.88
2023-01-29T07:24:40.488Z,99126.47
2023-01-29T07:27:46.792Z,99124.75
2023-01-29T07:30:52.196Z,99123.88
2023-01-29T07:33:58.443Z,99123.88
2023-01-29T07:37:03.802Z,99124.75
2023-01-29T07:40:15.288Z,99132.50
2023-01-29T07:43:21.025Z,99135.94
2023-01-29T07:46:27.231Z,99134.22
2023-01-29T07:49:32.804Z,99129.06
2023-01-29T07:52:38.992Z,99124.78
2023-01-29T07:55:48.148Z,99143.69
2023-01-29T07:58:54.352Z,99160.00
2023-01-29T08:01:59.762Z,99156.59
2023-01-29T08:05:06.225Z,99162.59
2023-01-29T08:08:12.491Z,99182.34
2023-01-29T08:11:21.467Z,99174.63
2023-01-29T08:14:27.413Z,99163.44
2023-01-29T08:17:33.857Z,99175.47
2023-01-29T08:20:39.453Z,99180.63
2023-01-29T08:23:45.844Z,99180.59
2023-01-29T08:26:54.224Z,99171.19
2023-01-29T08:30:00.608Z,99178.88
2023-01-29T08:33:07.600Z,99174.59
2023-01-29T08:36:13.984Z,99177.13
2023-01-29T08:39:19.363Z,99180.59
2023-01-29T08:42:28.387Z,99182.34
2023-01-29T08:45:34.510Z,99192.66
2023-01-29T08:48:40.789Z,99178.91
2023-01-29T08:51:46.368Z,99194.34
2023-01-29T08:54:52.589Z,99184.06
2023-01-29T08:58:00.724Z,99199.50
2023-01-29T09:01:12.450Z,99155.72
2023-01-29T09:04:17.915Z,99179.75
2023-01-29T09:07:24.707Z,99164.28
2023-01-29T09:10:31.133Z,99120.47
2023-01-29T09:13:40.413Z,99140.06
2023-01-29T09:16:45.784Z,99140.09
2023-01-29T09:19:53.205Z,99136.69
2023-01-29T09:23:00.378Z,99133.22
2023-01-29T09:26:07.782Z,99146.94
2023-01-29T09:29:19.372Z,99153.09
2023-01-29T09:32:52.202Z,99146.19
2023-01-29T09:35:51.398Z,99153.06
2023-01-29T09:38:57.671Z,99148.78
2023-01-29T09:42:15.722Z,99159.09
2023-01-29T09:45:29.685Z,99172.00
2023-01-29T09:48:40.033Z,99154.81
2023-01-29T09:51:54.143Z,99159.13
2023-01-29T09:55:09.848Z,99156.50
2023-01-29T09:58:28.486Z,99148.72
2023-01-29T10:01:59.745Z,99135.78
2023-01-29T10:05:32.878Z,99138.34
2023-01-29T10:09:32.974Z,99103.09
2023-01-29T10:13:02.304Z,99097.91
2023-01-29T10:16:35.012Z,99096.19
2023-01-29T10:20:13.338Z,99098.78
2023-01-29T10:23:28.192Z,99091.94
2023-01-29T10:26:38.139Z,99077.34
2023-01-29T10:29:47.052Z,99067.75
2023-01-29T10:32:54.392Z,99083.22
2023-01-29T10:36:11.699Z,99069.50
2023-01-29T10:39:21.666Z,99057.38
2023-01-29T10:42:40.919Z,99040.13
2023-01-29T10:46:06.646Z,99028.94
2023-01-29T10:49:35.105Z,99012.34
2023-01-29T10:53:08.204Z,99019.25
2023-01-29T10:56:42.976Z,99007.06
2023-01-29T11:00:13.462Z,99005.38
2023-01-29T11:03:28.333Z,99006.34
2023-01-29T11:06:38.189Z,98999.41
2023-01-29T11:09:56.889Z,98975.38
2023-01-29T11:13:05.189Z,98975.28
2023-01-29T11:16:15.729Z,98969.31
2023-01-29T11:19:41.082Z,98964.06
2023-01-29T11:22:58.306Z,98953.06
2023-01-29T11:26:09.510Z,98960.19
2023-01-29T11:29:42.141Z,98950.78
2023-01-29T11:32:54.417Z,98946.34
2023-01-29T11:35:59.937Z,98941.06
2023-01-29T11:39:24.459Z,98934.25
2023-01-29T11:42:35.167Z,98935.19
2023-01-29T11:45:43.881Z,98951.69
2023-01-29T11:48:59.210Z,98947.41
2023-01-29T11:52:17.588Z,98946.63
2023-01-29T11:55:28.335Z,98941.41
2023-01-29T11:58:39.753Z,98953.56
2023-01-29T12:01:45.942Z,98950.78
2023-01-29T12:04:54.401Z,98950.72
2023-01-29T12:08:04.930Z,98926.63
2023-01-29T12:11:16.819Z,98941.06
2023-01-29T12:14:34.393Z,98933.91
2023-01-29T12:17:49.595Z,98937.22
2023-01-29T12:21:02.951Z,98930.16
2023-01-29T12:24:32.225Z,98929.28
2023-01-29T12:27:51.121Z,98916.47
2023-01-29T12:31:25.026Z,98917.19
2023-01-29T12:34:46.529Z,98917.22
2023-01-29T12:38:05.465Z,98907.59
2023-01-29T12:41:28.409Z,98904.13
2023-01-29T12:44:44.075Z,98898.94
2023-01-29T12:47:58.915Z,98905.78
2023-01-29T12:51:13.162Z,98904.06
2023-01-29T12:54:26.629Z,98900.53
2023-01-29T12:57:49.143Z,98886.81
2023-01-29T13:01:04.458Z,98895.56
2023-01-29T13:04:28.811Z,98888.72
2023-01-29T13:07:46.377Z,98884.34
2023-01-29T13:10:57.330Z,98886.19
2023-01-29T13:14:15.992Z,98880.03
2023-01-29T13:17:36.079Z,98879.06
2023-01-29T13:20:46.546Z,98864.69
2023-01-29T13:24:04.574Z,98873.41
2023-01-29T13:27:10.772Z,98860.41
2023-01-29T13:30:32.958Z,98868.00
2023-01-29T13:33:38.598Z,98869.75
2023-01-29T13:36:55.049Z,98875.19
2023-01-29T13:40:07.406Z,98862.84
2023-01-29T13:43:26.543Z,98854.09
2023-01-29T13:46:35.320Z,98854.94
2023-01-29T13:49:48.697Z,98848.72
2023-01-29T13:53:04.153Z,98838.16
2023-01-29T13:56:50.057Z,98826.94
2023-01-29T13:59:59.096Z,98782.28
2023-01-29T14:04:05.787Z,98832.78
2023-01-29T14:07:53.336Z,98832.00
2023-01-29T14:11:39.995Z,98835.41
2023-01-29T14:15:08.778Z,98823.66
2023-01-29T14:18:25.324Z,98826.25
2023-01-29T14:21:35.079Z,98827.16
2023-01-29T14:24:46.871Z,98816.13
2023-01-29T14:27:56.609Z,98828.25
2023-01-29T14:31:03.887Z,98822.19
2023-01-29T14:34:24.200Z,98828.16
2023-01-29T14:37:39.023Z,98828.47
2023-01-29T14:40:51.166Z,98832.09
2023-01-29T14:44:59.896Z,98819.22
2023-01-29T14:48:41.858Z,98832.34
2023-01-29T14:51:49.983Z,98824.56
2023-01-29T14:55:02.782Z,98825.25
2023-01-29T14:58:17.840Z,98823.53
2023-01-29T15:01:37.587Z,98828.69
2023-01-29T15:04:53.182Z,98834.66
2023-01-29T15:08:09.402Z,98825.97
2023-01-29T15:11:36.685Z,98819.84
2023-01-29T15:14:55.235Z,98830.22
2023-01-29T15:18:16.409Z,98818.16
2023-01-29T15:21:23.089Z,98810.56
2023-01-29T15:24:29.254Z,98821.00
2023-01-29T15:27:35.413Z,98821.91
2023-01-29T15:30:43.841Z,98815.81
2023-01-29T15:33:58.513Z,98822.81
2023-01-29T15:37:05.441Z,98827.16
2023-01-29T15:40:20.245Z,98813.56
2023-01-29T15:43:29.418Z,98811.78
2023-01-29T15:46:40.881Z,98808.28
2023-01-29T15:49:50.831Z,98796.16
2023-01-29T15:53:01.115Z,98790.09
2023-01-29T15:56:14.015Z,98782.31
2023-01-29T15:59:25.668Z,98785.69
2023-01-29T16:02:41.569Z,98782.22
2023-01-29T16:05:50.112Z,98795.91
2023-01-29T16:09:00.130Z,98783.81
2023-01-29T16:12:07.224Z,98782.09
2023-01-29T16:15:31.706Z,98785.69
2023-01-29T16:18:54.162Z,98777.16
2023-01-29T16:22:12.188Z,98747.09
2023-01-29T16:25:20.216Z,98766.03
2023-01-29T16:28:27.072Z,98768.63
2023-01-29T16:31:35.948Z,98760.09
2023-01-29T16:34:48.214Z,98764.28
2023-01-29T16:38:06.166Z,98763.34
2023-01-29T16:41:31.169Z,98744.56
2023-01-29T16:44:40.784Z,98777.06
2023-01-29T16:47:47.340Z,98766.75
2023-01-29T16:50:55.252Z,98770.34
2023-01-29T16:54:11.434Z,98774.75
2023-01-29T16:57:25.821Z,98772.19
2023-01-29T17:00:34.657Z,98772.13
2023-01-29T17:03:44.089Z,98768.56
2023-01-29T17:06:59.122Z,98773.72
2023-01-29T17:10:10.684Z,98777.19
2023-01-29T17:13:28.329Z,98775.38
2023-01-29T17:16:36.408Z,98773.59
2023-01-29T17:19:42.789Z,98770.06
2023-01-29T17:22:48.133Z,98766.59
2023-01-29T17:25:57.251Z,98764.13
2023-01-29T17:29:02.714Z,98752.88
2023-01-29T17:32:09.611Z,98755.47
2023-01-29T17:35:17.020Z,98744.38
2023-01-29T17:38:26.569Z,98748.59
2023-01-29T17:41:36.595Z,98745.94
2023-01-29T17:44:43.370Z,98741.59
2023-01-29T17:47:48.799Z,98736.31
2023-01-29T17:50:58.845Z,98727.72
2023-01-29T17:54:04.242Z,98723.41
2023-01-29T17:57:22.387Z,98731.16
2023-01-29T18:00:28.324Z,98713.16
2023-01-29T18:03:34.613Z,98725.22
2023-01-29T18:06:41.322Z,98718.44
2023-01-29T18:09:47.556Z,98740.88
2023-01-29T18:12:55.757Z,98731.50
2023-01-29T18:16:02.068Z,98721.16
2023-01-29T18:19:19.757Z,98720.25
2023-01-29T18:22:26.248Z,98714.25
2023-01-29T18:25:39.637Z,98723.72
2023-01-29T18:28:48.728Z,98708.16
2023-01-29T18:31:54.558Z,98704.59
2023-01-29T18:35:01.078Z,98707.25
2023-01-29T18:38:07.245Z,98702.03
2023-01-29T18:41:14.772Z,98702.91
2023-01-29T18:44:23.241Z,98702.91
2023-01-29T18:47:29.614Z,98711.63
2023-01-29T18:50:35.589Z,98703.00
2023-01-29T18:53:41.989Z,98703.16
2023-01-29T18:57:13.612Z,98698.91
2023-01-29T19:00:18.015Z,98699.88
2023-01-29T19:03:23.530Z,98690.38
2023-01-29T19:06:29.889Z,98689.56
2023-01-29T19:09:36.728Z,98684.41
2023-01-29T19:12:43.485Z,98679.25
2023-01-29T19:15:51.940Z,98673.47
2023-01-29T19:18:59.287Z,98676.91
2023-01-29T19:22:04.827Z,98670.84
2023-01-29T19:25:12.902Z,98655.47
2023-01-29T19:28:18.832Z,98667.41
2023-01-29T19:31:28.328Z,98662.34
2023-01-29T19:34:34.453Z,98670.06
2023-01-29T19:37:40.891Z,98672.72
2023-01-29T19:40:46.443Z,98664.88
2023-01-29T19:43:54.009Z,98669.97
2023-01-29T19:47:02.323Z,98663.97
2023-01-29T19:50:10.489Z,98530.78
2023-01-29T19:53:15.979Z,98662.19
2023-01-29T19:56:22.948Z,98650.09
2023-01-29T19:59:28.615Z,98650.06
2023-01-29T20:02:37.802Z,98646.63
2023-01-29T20:05:43.504Z,98656.19
2023-01-29T20:08:49.907Z,98645.00
2023-01-29T20:11:55.335Z,98646.94
2023-01-29T20:15:01.877Z,98648.63
2023-01-29T20:18:12.070Z,98650.47
2023-01-29T20:21:22.564Z,98652.25
2023-01-29T20:24:29.430Z,98648.78
2023-01-29T20:27:35.738Z,98650.63
2023-01-29T20:30:43.216Z,98640.31
2023-01-29T20:33:52.740Z,98646.44
2023-01-29T20:36:58.139Z,98646.44
2023-01-29T20:40:04.506Z,98643.81
2023-01-29T20:43:09.941Z,98633.66
2023-01-29T20:46:16.868Z,98639.69
2023-01-29T20:49:25.135Z,98631.06
2023-01-29T20:52:31.340Z,98627.72
2023-01-29T20:55:36.888Z,98638.03
2023-01-29T20:58:43.867Z,98632.00
2023-01-29T21:01:49.661Z,98621.66
2023-01-29T21:04:58.802Z,98619.97
2023-01-29T21:08:04.415Z,98609.69
2023-01-29T21:11:15.408Z,98605.41
2023-01-29T21:14:20.802Z,98590.69
2023-01-29T21:17:28.169Z,98593.09
2023-01-29T21:20:36.545Z,98576.69
2023-01-29T21:23:43.068Z,98573.22
2023-01-29T21:26:48.940Z,98570.50
2023-01-29T21:29:55.255Z,98520.97
2023-01-29T21:33:00.726Z,98569.56
2023-01-29T21:36:13.075Z,98569.56
2023-01-29T21:39:24.513Z,98569.59
2023-01-29T21:42:46.358Z,98562.75
2023-01-29T21:45:59.542Z,98555.88
2023-01-29T21:49:06.573Z,98554.13
2023-01-29T21:52:17.309Z,98550.72
2023-01-29T21:55:24.087Z,98548.19
2023-01-29T21:58:30.024Z,98547.28
2023-01-29T22:01:38.767Z,98540.47
2023-01-29T22:04:45.102Z,98537.06
2023-01-29T22:07:54.589Z,98534.44
2023-01-29T22:10:59.997Z,98526.63
2023-01-29T22:14:06.353Z,98528.28
2023-01-29T22:17:12.639Z,98519.59
2023-01-29T22:20:19.572Z,98514.47
2023-01-29T22:23:28.360Z,98509.28
2023-01-29T22:26:34.657Z,98490.44
2023-01-29T22:29:40.046Z,98492.94
2023-01-29T22:32:46.336Z,98486.91
2023-01-29T22:35:57.120Z,98477.44
2023-01-29T22:39:06.462Z,98473.13
2023-01-29T22:42:12.137Z,98471.25
2023-01-29T22:45:18.614Z,98474.69
2023-01-29T22:48:27.134Z,98475.59
2023-01-29T22:51:33.363Z,98461.78
2023-01-29T22:54:43.438Z,98440.22
2023-01-29T22:57:53.576Z,98448.72
2023-01-29T23:00:58.975Z,98452.19
2023-01-29T23:04:05.204Z,98443.72
2023-01-29T23:07:11.459Z,98426.41
2023-01-29T23:10:20.740Z,98429.91
2023-01-29T23:13:26.391Z,98432.75
2023-01-29T23:16:32.660Z,98428.53
2023-01-29T23:19:38.423Z,98425.09
2023-01-29T23:22:44.889Z,98421.66
2023-01-29T23:26:09.032Z,98416.50
2023-01-29T23:29:15.578Z,98409.69
2023-01-29T23:32:23.833Z,98394.25
2023-01-29T23:35:30.051Z,98385.47
2023-01-29T23:38:35.487Z,98369.91
2023-01-29T23:41:44.516Z,98364.75
2023-01-29T23:44:49.875Z,98360.34
2023-01-29T23:47:56.158Z,98360.19
2023-01-29T23:51:01.619Z,98360.13
2023-01-29T23:54:08.363Z,98346.28
2023-01-29T23:57:16.471Z,98338.47
